Time,TemperatureF,DewpointF,PressureIn,WindDirection,WindDirectionDegrees,WindSpeedMPH,WindSpeedGustMPH,Humidity,HourlyPrecipIn,Conditions,Clouds,dailyrainin,SoftwareType,DateUTC
2013-06-13 00:10:00,73.8,72.0,29.92,ENE,65,0.0,1.0,95,0.00,,,0.00,weatherlink.com 1.10,2013-06-13 04:10:00,
2013-06-13 00:25:00,73.5,72.0,29.92,ENE,65,0.0,0.0,95,0.00,,,0.00,weatherlink.com 1.10,2013-06-13 04:25:00,
2013-06-13 00:40:00,73.2,72.0,29.91,ENE,65,0.0,1.0,96,0.00,,,0.00,weatherlink.com 1.10,2013-06-13 04:40:00,
2013-06-13 00:55:00,72.8,72.0,29.91,ENE,65,0.0,0.0,96,0.00,,,0.00,weatherlink.com 1.10,2013-06-13 04:55:00,
2013-06-13 01:10:00,72.7,72.0,29.91,ENE,65,0.0,0.0,96,0.00,,,0.00,weatherlink.com 1.10,2013-06-13 05:10:00,
2013-06-13 01:25:00,72.4,71.0,29.91,ENE,65,0.0,0.0,96,0.00,,,0.00,weatherlink.com 1.10,2013-06-13 05:25:00,
2013-06-13 01:40:00,72.4,71.0,29.91,ENE,65,0.0,1.0,95,0.00,,,0.00,weatherlink.com 1.10,2013-06-13 05:40:00,
2013-06-13 01:55:00,72.4,71.0,29.91,ENE,65,0.0,0.0,94,0.00,,,0.00,weatherlink.com 1.10,2013-06-13 05:55:00,
2013-06-13 02:10:00,72.5,71.0,29.91,NW,316,0.0,1.0,94,0.00,,,0.00,weatherlink.com 1.10,2013-06-13 06:10:00,
2013-06-13 02:25:00,72.5,70.0,29.91,NW,316,0.0,0.0,93,0.00,,,0.00,weatherlink.com 1.10,2013-06-13 06:25:00,
2013-06-13 02:40:00,72.4,70.0,29.91,NE,45,0.0,0.0,93,0.00,,,0.00,weatherlink.com 1.10,2013-06-13 06:40:00,
2013-06-13 02:55:00,71.9,70.0,29.91,NE,45,0.0,0.0,93,0.00,,,0.00,weatherlink.com 1.10,2013-06-13 06:55:00,
2013-06-13 03:10:00,71.4,70.0,29.91,NE,45,0.0,0.0,95,0.00,,,0.00,weatherlink.com 1.10,2013-06-13 07:10:00,
2013-06-13 03:25:00,71.4,70.0,29.91,NE,45,0.0,0.0,95,0.00,,,0.00,weatherlink.com 1.10,2013-06-13 07:25:00,
2013-06-13 03:41:00,71.6,70.0,29.90,ENE,62,0.0,1.0,95,0.00,,,0.00,weatherlink.com 1.10,2013-06-13 07:41:00,
2013-06-13 03:55:00,71.4,70.0,29.90,ENE,62,0.0,1.0,95,0.00,,,0.00,weatherlink.com 1.10,2013-06-13 07:55:00,
2013-06-13 04:10:00,71.7,70.0,29.90,ENE,63,0.0,0.0,95,0.00,,,0.00,weatherlink.com 1.10,2013-06-13 08:10:00,
2013-06-13 04:25:00,72.5,71.0,29.90,ESE,120,0.0,1.0,94,0.00,,,0.00,weatherlink.com 1.10,2013-06-13 08:25:00,
2013-06-13 04:40:00,73.4,71.0,29.89,SE,145,0.0,1.0,92,0.00,,,0.00,weatherlink.com 1.10,2013-06-13 08:40:00,
2013-06-13 04:56:00,74.2,71.0,29.89,SE,131,0.0,2.0,90,0.00,,,0.00,weatherlink.com 1.10,2013-06-13 08:56:00,
2013-06-13 05:11:00,74.3,71.0,29.89,SE,131,0.0,1.0,90,0.00,,,0.00,weatherlink.com 1.10,2013-06-13 09:11:00,
2013-06-13 05:26:00,73.7,71.0,29.89,ESE,108,0.0,1.0,90,0.00,,,0.00,weatherlink.com 1.10,2013-06-13 09:26:00,
2013-06-13 05:41:00,73.2,71.0,29.88,ESE,108,0.0,0.0,91,0.00,,,0.00,weatherlink.com 1.10,2013-06-13 09:41:00,
2013-06-13 05:56:00,72.6,71.0,29.88,ESE,108,0.0,0.0,93,0.00,,,0.00,weatherlink.com 1.10,2013-06-13 09:56:00,
2013-06-13 06:11:00,71.9,70.0,29.88,ESE,108,0.0,0.0,94,0.00,,,0.00,weatherlink.com 1.10,2013-06-13 10:11:00,
2013-06-13 06:26:00,71.3,70.0,29.88,ESE,108,0.0,0.0,94,0.00,,,0.00,weatherlink.com 1.10,2013-06-13 10:26:00,
2013-06-13 06:41:00,70.7,70.0,29.87,ESE,108,0.0,0.0,96,0.00,,,0.00,weatherlink.com 1.10,2013-06-13 10:41:00,
2013-06-13 06:56:00,70.8,70.0,29.88,ESE,115,0.0,2.0,97,0.00,,,0.00,weatherlink.com 1.10,2013-06-13 10:56:00,
2013-06-13 07:11:00,71.1,70.0,29.88,SE,124,0.0,1.0,96,0.00,,,0.00,weatherlink.com 1.10,2013-06-13 11:11:00,
2013-06-13 07:27:00,71.7,70.0,29.88,ENE,68,0.0,1.0,95,0.00,,,0.00,weatherlink.com 1.10,2013-06-13 11:27:00,
2013-06-13 07:41:00,72.6,71.0,29.88,NW,307,0.0,2.0,94,0.00,,,0.00,weatherlink.com 1.10,2013-06-13 11:41:00,
2013-06-13 07:56:00,74.1,72.0,29.88,NW,308,0.0,0.0,92,0.00,,,0.00,weatherlink.com 1.10,2013-06-13 11:56:00,
2013-06-13 08:11:00,75.8,72.0,29.88,SE,134,0.0,3.0,88,0.00,,,0.00,weatherlink.com 1.10,2013-06-13 12:11:00,
2013-06-13 08:26:00,77.1,73.0,29.87,ESE,123,0.0,1.0,86,0.00,,,0.00,weatherlink.com 1.10,2013-06-13 12:26:00,
2013-06-13 08:41:00,78.4,73.0,29.87,ESE,109,1.0,4.0,82,0.00,,,0.00,weatherlink.com 1.10,2013-06-13 12:41:00,
2013-06-13 08:56:00,79.8,73.0,29.87,ESE,123,0.0,5.0,80,0.00,,,0.00,weatherlink.com 1.10,2013-06-13 12:56:00,
2013-06-13 09:11:00,81.2,74.0,29.87,East,98,0.0,3.0,78,0.00,,,0.00,weatherlink.com 1.10,2013-06-13 13:11:00,
2013-06-13 09:26:00,82.3,74.0,29.87,SE,125,1.0,4.0,75,0.00,,,0.00,weatherlink.com 1.10,2013-06-13 13:26:00,
2013-06-13 09:41:00,83.5,74.0,29.86,WNW,283,1.0,4.0,74,0.00,,,0.00,weatherlink.com 1.10,2013-06-13 13:41:00,
2013-06-13 09:56:00,84.6,75.0,29.86,ESE,114,1.0,7.0,73,0.00,,,0.00,weatherlink.com 1.10,2013-06-13 13:56:00,
2013-06-13 10:11:00,84.3,74.0,29.85,SSE,148,0.0,4.0,71,0.00,,,0.00,weatherlink.com 1.10,2013-06-13 14:11:00,
2013-06-13 10:26:00,83.7,75.0,29.85,East,87,1.0,4.0,74,0.00,,,0.00,weatherlink.com 1.10,2013-06-13 14:26:00,
2013-06-13 10:41:00,84.8,75.0,29.84,NNW,340,0.0,2.0,73,0.00,,,0.00,weatherlink.com 1.10,2013-06-13 14:41:00,
2013-06-13 10:56:00,85.5,75.0,29.84,ESE,102,2.0,3.0,71,0.00,,,0.00,weatherlink.com 1.10,2013-06-13 14:56:00,
2013-06-13 11:12:00,85.2,75.0,29.84,West,262,0.0,3.0,71,0.00,,,0.00,weatherlink.com 1.10,2013-06-13 15:12:00,
2013-06-13 11:26:00,85.2,76.0,29.82,WNW,288,0.0,1.0,73,0.00,,,0.00,weatherlink.com 1.10,2013-06-13 15:26:00,
2013-06-13 11:41:00,85.2,76.0,29.82,East,83,0.0,2.0,74,0.00,,,0.00,weatherlink.com 1.10,2013-06-13 15:41:00,
2013-06-13 11:57:00,85.8,76.0,29.81,West,280,2.0,3.0,72,0.00,,,0.00,weatherlink.com 1.10,2013-06-13 15:57:00,
2013-06-13 12:12:00,85.1,75.0,29.82,SE,128,1.0,4.0,72,0.00,,,0.00,weatherlink.com 1.10,2013-06-13 16:12:00,
2013-06-13 12:27:00,85.4,76.0,29.82,SE,129,0.0,4.0,74,0.00,,,0.00,weatherlink.com 1.10,2013-06-13 16:27:00,
2013-06-13 12:42:00,87.7,77.0,29.81,SE,143,1.0,3.0,71,0.00,,,0.00,weatherlink.com 1.10,2013-06-13 16:42:00,
2013-06-13 12:57:00,88.1,77.0,29.80,NNE,30,0.0,3.0,70,0.00,,,0.00,weatherlink.com 1.10,2013-06-13 16:57:00,
2013-06-13 13:12:00,87.8,77.0,29.80,WNW,295,1.0,4.0,70,0.00,,,0.00,weatherlink.com 1.10,2013-06-13 17:12:00,
2013-06-13 13:27:00,88.4,77.0,29.79,SE,137,0.0,5.0,68,0.00,,,0.00,weatherlink.com 1.10,2013-06-13 17:27:00,
2013-06-13 13:42:00,88.7,75.0,29.78,ESE,111,2.0,6.0,65,0.00,,,0.00,weatherlink.com 1.10,2013-06-13 17:42:00,
2013-06-13 13:57:00,88.2,76.0,29.78,East,94,2.0,7.0,67,0.00,,,0.00,weatherlink.com 1.10,2013-06-13 17:57:00,
2013-06-13 14:12:00,88.9,76.0,29.77,SE,130,2.0,5.0,66,0.00,,,0.00,weatherlink.com 1.10,2013-06-13 18:12:00,
2013-06-13 14:27:00,88.5,76.0,29.77,ESE,114,0.0,3.0,66,0.00,,,0.00,weatherlink.com 1.10,2013-06-13 18:27:00,
2013-06-13 14:42:00,88.2,77.0,29.76,ESE,119,2.0,4.0,69,0.00,,,0.00,weatherlink.com 1.10,2013-06-13 18:42:00,
2013-06-13 14:57:00,88.3,76.0,29.75,ESE,111,0.0,4.0,67,0.00,,,0.00,weatherlink.com 1.10,2013-06-13 18:57:00,
2013-06-13 15:12:00,88.7,77.0,29.75,West,264,0.0,6.0,69,0.00,,,0.00,weatherlink.com 1.10,2013-06-13 19:12:00,
2013-06-13 15:27:00,90.5,78.0,29.75,SE,135,0.0,2.0,66,0.00,,,0.00,weatherlink.com 1.10,2013-06-13 19:27:00,
2013-06-13 15:42:00,90.3,76.0,29.75,ESE,117,1.0,5.0,62,0.00,,,0.00,weatherlink.com 1.10,2013-06-13 19:42:00,
2013-06-13 15:57:00,88.3,76.0,29.74,ESE,121,0.0,3.0,66,0.00,,,0.00,weatherlink.com 1.10,2013-06-13 19:57:00,
2013-06-13 16:12:00,86.6,76.0,29.74,ESE,115,0.0,4.0,70,0.00,,,0.00,weatherlink.com 1.10,2013-06-13 20:12:00,
2013-06-13 16:27:00,84.0,75.0,29.73,East,98,0.0,2.0,75,0.00,,,0.00,weatherlink.com 1.10,2013-06-13 20:27:00,
2013-06-13 16:42:00,83.4,76.0,29.72,ESE,103,1.0,2.0,78,0.00,,,0.00,weatherlink.com 1.10,2013-06-13 20:42:00,
2013-06-13 16:57:00,82.5,77.0,29.73,SSW,208,1.0,3.0,82,0.00,,,0.00,weatherlink.com 1.10,2013-06-13 20:57:00,
2013-06-13 17:12:00,82.0,76.0,29.73,East,82,0.0,2.0,81,0.01,,,0.01,weatherlink.com 1.10,2013-06-13 21:12:00,
2013-06-13 17:27:00,82.9,75.0,29.74,North,352,1.0,7.0,76,0.01,,,0.01,weatherlink.com 1.10,2013-06-13 21:27:00,
2013-06-13 17:42:00,83.3,74.0,29.75,ENE,66,0.0,4.0,74,0.01,,,0.01,weatherlink.com 1.10,2013-06-13 21:42:00,
2013-06-13 17:57:00,83.4,75.0,29.75,East,85,1.0,2.0,76,0.01,,,0.01,weatherlink.com 1.10,2013-06-13 21:57:00,
2013-06-13 18:12:00,83.5,74.0,29.75,SE,133,0.0,4.0,73,0.00,,,0.01,weatherlink.com 1.10,2013-06-13 22:12:00,
2013-06-13 18:27:00,83.0,72.0,29.77,SE,136,0.0,6.0,70,0.00,,,0.01,weatherlink.com 1.10,2013-06-13 22:27:00,
2013-06-13 18:42:00,82.8,72.0,29.77,ESE,122,2.0,5.0,70,0.00,,,0.01,weatherlink.com 1.10,2013-06-13 22:42:00,
2013-06-13 18:57:00,82.3,71.0,29.78,SE,128,0.0,13.0,69,0.00,,,0.01,weatherlink.com 1.10,2013-06-13 22:57:00,
2013-06-13 19:12:00,81.5,69.0,29.77,WNW,297,2.0,7.0,65,0.00,,,0.01,weatherlink.com 1.10,2013-06-13 23:12:00,
2013-06-13 19:27:00,80.7,69.0,29.79,NNW,338,0.0,7.0,67,0.00,,,0.01,weatherlink.com 1.10,2013-06-13 23:27:00,
2013-06-13 19:42:00,80.2,69.0,29.79,WNW,298,1.0,1.0,68,0.00,,,0.01,weatherlink.com 1.10,2013-06-13 23:42:00,
2013-06-13 19:57:00,79.6,69.0,29.79,North,3,0.0,2.0,69,0.00,,,0.01,weatherlink.com 1.10,2013-06-13 23:57:00,
2013-06-13 20:12:00,79.0,68.0,29.79,NNE,33,0.0,4.0,70,0.00,,,0.01,weatherlink.com 1.10,2013-06-14 00:12:00,
2013-06-13 20:27:00,78.2,68.0,29.79,NW,307,0.0,2.0,71,0.00,,,0.01,weatherlink.com 1.10,2013-06-14 00:27:00,
2013-06-13 20:42:00,77.4,68.0,29.80,East,82,0.0,1.0,73,0.00,,,0.01,weatherlink.com 1.10,2013-06-14 00:42:00,
2013-06-13 20:57:00,76.4,69.0,29.82,NNE,24,0.0,2.0,77,0.00,,,0.01,weatherlink.com 1.10,2013-06-14 00:57:00,
2013-06-13 21:12:00,75.5,67.0,29.83,NNE,25,0.0,1.0,75,0.00,,,0.01,weatherlink.com 1.10,2013-06-14 01:12:00,
2013-06-13 21:27:00,74.9,68.0,29.83,NNE,31,0.0,1.0,78,0.00,,,0.01,weatherlink.com 1.10,2013-06-14 01:27:00,
2013-06-13 21:42:00,74.3,67.0,29.83,NNE,30,0.0,1.0,77,0.00,,,0.01,weatherlink.com 1.10,2013-06-14 01:42:00,
2013-06-13 21:57:00,74.2,67.0,29.84,NE,43,0.0,1.0,78,0.00,,,0.01,weatherlink.com 1.10,2013-06-14 01:57:00,
2013-06-13 22:13:00,73.2,67.0,29.84,NE,42,0.0,0.0,81,0.00,,,0.01,weatherlink.com 1.10,2013-06-14 02:13:00,
2013-06-13 22:27:00,72.8,66.0,29.84,NE,43,0.0,1.0,80,0.00,,,0.01,weatherlink.com 1.10,2013-06-14 02:27:00,
2013-06-13 22:42:00,72.4,66.0,29.85,NNE,30,0.0,1.0,81,0.00,,,0.01,weatherlink.com 1.10,2013-06-14 02:42:00,
2013-06-13 22:57:00,72.8,66.0,29.85,NNW,338,0.0,1.0,78,0.00,,,0.01,weatherlink.com 1.10,2013-06-14 02:57:00,
2013-06-13 23:12:00,72.4,66.0,29.86,NNW,339,0.0,0.0,80,0.00,,,0.01,weatherlink.com 1.10,2013-06-14 03:12:00,
2013-06-13 23:27:00,71.9,66.0,29.87,NE,54,0.0,2.0,81,0.00,,,0.01,weatherlink.com 1.10,2013-06-14 03:27:00,
2013-06-13 23:42:00,72.1,66.0,29.87,NNE,12,0.0,2.0,81,0.00,,,0.01,weatherlink.com 1.10,2013-06-14 03:42:00,
2013-06-13 23:57:00,71.5,66.0,29.86,NNE,21,0.0,1.0,82,0.00,,,0.01,weatherlink.com 1.10,2013-06-14 03:57:00,